• Join FlightAware (Why Join?)
  • Login
  • US Flag 
01:25PM EDT


 

Airport Tracker/Info


-or-


 

Live Flight TrackerFlight Track Log ✈ N904PA ✈ 01-May-2013 ✈ KSMO - KBFL

Flight Track Log - Related Links

Times and Time Zones

All times are in EDT time to prevent confusion due to time zone crossing. See the N904PA flight status page for this flight to view local times or setup timezone preferences in your user account.

Time Position Orientation Groundspeed Altitude Reporting Facility
EDT Latitude Longitude Course Direction KTS MPH feet Rate Location/Type
12:48PM 34.0000 -118.5500 292° West 182 209 3,100  Level Southern California TRACON
12:49PM 33.9928 -118.5906 258° West 187 215 3,800 1,200 Climbing Los Angeles Center
12:50PM 33.9961 -118.6461 274° West 180 207 5,100 1,020 Climbing Los Angeles Center
12:51PM 34.0294 -118.6547 348° North 163 188 5,900 1,080 Climbing Los Angeles Center
12:52PM 34.0900 -118.6708 348° North 181 208 7,400 1,260 Climbing Los Angeles Center
12:53PM 34.1411 -118.6867 346° North 187 215 8,600 1,200 Climbing Los Angeles Center
12:54PM 34.1939 -118.7011 347° North 193 222 9,900 900 Climbing Los Angeles Center
12:55PM 34.2486 -118.7158 347° North 200 230 10,500 240 Climbing Los Angeles Center
12:56PM 34.3206 -118.7364 347° North 220 253 10,500  Level Los Angeles Center
12:57PM 34.3808 -118.7533 347° North 223 257 10,500  Level Los Angeles Center
12:58PM 34.4422 -118.7686 348° North 226 260 10,500  Level Los Angeles Center
12:59PM 34.5006 -118.7853 347° North 216 249 10,500  Level Los Angeles Center
01:00PM 34.5575 -118.8069 343° North 214 246 10,500  Level Los Angeles Center
01:01PM 34.6308 -118.8250 349° North 223 257 10,500  Level Los Angeles Center
01:02PM 34.6911 -118.8419 347° North 222 255 10,500  Level Los Angeles Center
01:03PM 34.7525 -118.8617 345° North 227 261 10,500 -60 Level Los Angeles Center
01:04PM 34.8144 -118.8794 347° North 228 262 10,400 -360 Descending Los Angeles Center
01:05PM 34.8781 -118.8978 347° North 233 268 9,800 -840 Descending Los Angeles Center
01:06PM 34.9522 -118.9189 347° North 235 270 8,700 -1,020 Descending Los Angeles Center
01:07PM 35.0206 -118.9383 347° North 245 282 7,700 -1,020 Descending Los Angeles Center
01:08PM 35.0892 -118.9567 348° North 251 289 6,700 -780 Descending Los Angeles Center
01:09PM 35.1506 -118.9733 347° North 250 288 6,200 -540 Descending Los Angeles Center
01:11PM 35.2053 -118.9896 North  Level Estimated
01:18PM 35.4333 -119.0500 321° Northwest  Level FlightAware Approximate
01:19PM 35.4339 -119.0577 321° Northwest  Level Estimated
01:20PM 35.4333 -119.0500 321° Northwest  Level FlightAware Approximate
01:21PM 35.4339 -119.0577 321° Northwest  Level Estimated